»·PEaware :: N9229P KSBS-KBJC

N9229P :: KSBS-KBJC

FLIGHT INFORMATION

Flight Status: Arrived
Operator: Privately registered:
United States
More flights under this callsign
Pilot: James W. (24810)
Aircraft: PIPER PA-24 COMMANCHE
(PA24)
More flights by this aircraft type
Origin: KSBS Steamboat Springs/Adams
United States
Destination: KBJC Jeffco
United States
More flights between these airports :: More routes between these airports
Route:
File this flight plan on PilotEdge
Remarks:
Altitude:
(Current/Filed)
13,500ft
Speed:
(Current/Filed)
165kts
Departed: 24-Aug-20 05:55 PM
Arrived: 24-Aug-20 06:42 PM
Distance/Time
Traveled:
88nm/0:47
Distance/Time
To Go:
Arrived

Flight Plot

Page will automatically refresh every two minutes.

Flight plan parsing failed; only flown route is shown


Map Options




Map Legend


Flown Route
Filed Route
Departure Airport
Arrival Airport
Navaid (VOR, NDB)
Fix

Horizontal Profiles

Position Reports

Time Latitude Longitude Heading Altitude Ground
Speed
24-Aug-20 17:44 40.517421 -106.864499 333 6853ft 0kts
24-Aug-20 17:45 40.517421 -106.864499 333 6853ft 0kts
24-Aug-20 17:46 40.517421 -106.864499 333 6853ft 0kts
24-Aug-20 17:47 40.517421 -106.864499 333 6853ft 0kts
24-Aug-20 17:48 40.517421 -106.864499 333 6853ft 0kts
24-Aug-20 17:49 40.517421 -106.864499 333 6853ft 0kts
24-Aug-20 17:50 40.517422 -106.864499 333 6853ft 0kts
24-Aug-20 17:51 40.518302 -106.866258 352 6850ft 18kts
24-Aug-20 17:52 40.518726 -106.867938 337 6838ft 29kts
24-Aug-20 17:53 40.521508 -106.869803 162 6821ft 8kts
24-Aug-20 17:54 40.502108 -106.853741 157 7367ft 118kts
24-Aug-20 17:55 40.474625 -106.884929 228 8316ft 148kts
24-Aug-20 17:56 40.451165 -106.927285 228 9482ft 137kts
24-Aug-20 17:57 40.429374 -106.965092 228 10672ft 124kts
24-Aug-20 17:58 40.404858 -106.989732 168 11873ft 117kts
24-Aug-20 17:59 40.374694 -106.980240 171 13065ft 106kts
24-Aug-20 18:00 40.345207 -106.959845 147 13510ft 152kts
24-Aug-20 18:01 40.307811 -106.924429 147 13505ft 173kts
24-Aug-20 18:02 40.270050 -106.884817 130 13504ft 177kts
24-Aug-20 18:03 40.240064 -106.834779 131 13500ft 172kts
24-Aug-20 18:04 40.210893 -106.786279 130 13498ft 167kts
24-Aug-20 18:05 40.182197 -106.738635 130 13498ft 168kts
24-Aug-20 18:06 40.152903 -106.690052 130 13498ft 171kts
24-Aug-20 18:07 40.123524 -106.641403 130 13496ft 171kts
24-Aug-20 18:08 40.096670 -106.597006 130 13494ft 171kts
24-Aug-20 18:09 40.078782 -106.567467 130 13493ft 171kts
24-Aug-20 18:10 40.049410 -106.518824 130 13521ft 170kts
24-Aug-20 18:11 40.028799 -106.465166 94 13567ft 177kts
24-Aug-20 18:12 40.028968 -106.400785 94 13620ft 177kts
24-Aug-20 18:13 40.029155 -106.336446 94 13676ft 176kts
24-Aug-20 18:14 40.029420 -106.272939 94 13699ft 175kts
24-Aug-20 18:15 40.029701 -106.209050 94 13699ft 175kts
24-Aug-20 18:17 40.028710 -106.145425 96 13699ft 175kts
24-Aug-20 18:18 40.026579 -106.082087 97 13699ft 175kts
24-Aug-20 18:19 40.024304 -106.018663 97 13699ft 175kts
24-Aug-20 18:20 40.021524 -105.955335 98 13699ft 174kts
24-Aug-20 18:21 40.018413 -105.892017 98 13699ft 174kts
24-Aug-20 18:22 40.009818 -105.830471 110 13698ft 171kts
24-Aug-20 18:23 39.987582 -105.776463 128 13699ft 168kts
24-Aug-20 18:24 39.955227 -105.733222 137 13698ft 167kts
24-Aug-20 18:25 39.924536 -105.688446 102 13702ft 173kts
24-Aug-20 18:26 39.943970 -105.630155 63 13693ft 184kts
24-Aug-20 18:27 39.951521 -105.568576 63 13670ft 185kts
24-Aug-20 18:28 39.978004 -105.510739 64 13596ft 186kts
24-Aug-20 18:29 40.005046 -105.450547 63 13140ft 196kts
24-Aug-20 18:30 40.033152 -105.387942 64 12428ft 201kts
24-Aug-20 18:31 40.060803 -105.326272 64 11709ft 189kts
24-Aug-20 18:32 40.085852 -105.270265 64 10998ft 167kts
24-Aug-20 18:32 40.104858 -105.227633 63 10411ft 160kts
24-Aug-20 18:34 40.098182 -105.174699 168 9591ft 164kts
24-Aug-20 18:35 40.058630 -105.185499 187 9620ft 113kts
24-Aug-20 18:35 40.033476 -105.193160 187 8931ft 111kts
24-Aug-20 18:37 39.999310 -105.190199 159 8004ft 108kts
24-Aug-20 18:37 39.975288 -105.180845 159 7341ft 107kts
24-Aug-20 18:38 39.947434 -105.166018 140 6550ft 108kts
24-Aug-20 18:40 39.920796 -105.138533 119 5852ft 104kts
24-Aug-20 18:40 39.910576 -105.119336 110 5624ft 45kts
24-Aug-20 18:41 39.907917 -105.110853 105 5591ft 12kts

Navigation Log

Ident Type
Flight plan parsing failed, navigation log unavailable